Aérodrome :
LOGIN :

S'inscrire | Disclaimer

   EN    FR    IT 

 










Légende :    VFR   VFR Marginal   IFR   IFR Intensif   IFR Très Intensif
Visi : 
Plafond : 
>= 8 km
>= 3000ft
5 à 8 km
1000 à 3000 ft
1500m à 5 km
500 à 1000 ft
800 à 1500m
200 à 500 ft
< 800m
< 200 ft
Symboles :   Orages  Brouillard  Fortes neiges  Fortes précipitations  Vent > 20 kt
SIGMETs :   Divers  Orages  Givrage  Turbulence  Onde Orograph.  Cendres Volcan.






- Altitude de l'aérodrome : 352 ft
- Code IATA : KSD


ESOK - Karlstad

DERNIER METAR :
  • 050550Z 09009KT 9999 BKN015 13/10 Q0995

METARs EXPIRÉS :
  • 050520Z AUTO 09010KT 9999 FEW015/// SCT017/// BKN048/// 13/10 Q0995
  • 050450Z AUTO 10010KT 9999 SCT015/// BKN050/// 13/10 Q0996
  • 050420Z AUTO 08008KT 9999 SCT052/// 12/10 Q0996
  • 050350Z AUTO 08009KT 9999 FEW055/// 12/10 Q0996
  • 050320Z AUTO 07008KT 9999 NCD 12/10 Q0996

TAF TAF ESOK
Valide du 05 à 06h jusqu'au 05 à 15h UTC


050530Z 0506/0515 09010KT 9999 FEW015
PROB40 0513/0515 RA



MET'MAP, la Météo Aéronautique d'un coup d'oeil ! - Copyright ORBIFLY Décembre 2007 - Disclaimer

ORBIFLY MET'MAP TEAM :

Programmation & Développement : Alexandra Zaïnal
Sur une idée originale de : Baudouin d'Aumeries
Assistance à la programmation : Marc-Olivier Méhu
Soutien technique & logistique : Manuel Goepfert

Contact : metmap@orbifly.com




SOURCES & CREDITS :

   NOAA